sensor_id;sensor_type;location;lat;lon;timestamp;P1;durP1;ratioP1;P2;durP2;ratioP2
71534;SDS011;59357;51.514;7.438;2022-07-29T00:00:16;4.80;;;2.43;;
71534;SDS011;59357;51.514;7.438;2022-07-29T00:02:42;2.80;;;2.37;;
71534;SDS011;59357;51.514;7.438;2022-07-29T00:05:08;5.90;;;1.67;;
71534;SDS011;59357;51.514;7.438;2022-07-29T00:07:35;2.33;;;2.03;;
71534;SDS011;59357;51.514;7.438;2022-07-29T00:10:00;2.20;;;1.90;;
71534;SDS011;59357;51.514;7.438;2022-07-29T00:12:26;3.53;;;2.07;;
71534;SDS011;59357;51.514;7.438;2022-07-29T00:14:53;4.73;;;2.03;;
71534;SDS011;59357;51.514;7.438;2022-07-29T00:17:20;2.43;;;2.20;;
71534;SDS011;59357;51.514;7.438;2022-07-29T00:19:46;4.40;;;2.20;;
71534;SDS011;59357;51.514;7.438;2022-07-29T00:22:12;6.70;;;2.40;;
71534;SDS011;59357;51.514;7.438;2022-07-29T00:24:39;6.83;;;1.93;;
71534;SDS011;59357;51.514;7.438;2022-07-29T00:27:04;3.40;;;2.20;;
71534;SDS011;59357;51.514;7.438;2022-07-29T00:29:30;2.83;;;1.83;;
71534;SDS011;59357;51.514;7.438;2022-07-29T00:31:56;5.83;;;2.00;;
71534;SDS011;59357;51.514;7.438;2022-07-29T00:34:22;2.20;;;2.10;;
71534;SDS011;59357;51.514;7.438;2022-07-29T00:37:06;9.33;;;2.27;;
71534;SDS011;59357;51.514;7.438;2022-07-29T00:39:32;3.03;;;2.00;;
71534;SDS011;59357;51.514;7.438;2022-07-29T00:41:58;3.33;;;1.60;;
71534;SDS011;59357;51.514;7.438;2022-07-29T00:44:26;3.87;;;1.40;;
71534;SDS011;59357;51.514;7.438;2022-07-29T00:46:52;3.80;;;2.10;;
71534;SDS011;59357;51.514;7.438;2022-07-29T00:49:18;6.30;;;2.17;;
71534;SDS011;59357;51.514;7.438;2022-07-29T00:51:44;7.20;;;2.00;;
71534;SDS011;59357;51.514;7.438;2022-07-29T00:54:16;2.37;;;2.00;;
71534;SDS011;59357;51.514;7.438;2022-07-29T00:57:53;2.33;;;2.13;;
71534;SDS011;59357;51.514;7.438;2022-07-29T01:00:21;2.50;;;2.20;;
71534;SDS011;59357;51.514;7.438;2022-07-29T01:02:49;5.83;;;2.57;;
71534;SDS011;59357;51.514;7.438;2022-07-29T01:05:23;2.73;;;2.03;;
71534;SDS011;59357;51.514;7.438;2022-07-29T01:07:52;6.13;;;2.13;;
71534;SDS011;59357;51.514;7.438;2022-07-29T01:10:19;5.57;;;2.30;;
71534;SDS011;59357;51.514;7.438;2022-07-29T01:12:47;8.03;;;2.30;;
71534;SDS011;59357;51.514;7.438;2022-07-29T01:15:15;8.47;;;2.57;;
71534;SDS011;59357;51.514;7.438;2022-07-29T01:17:45;3.60;;;1.87;;
71534;SDS011;59357;51.514;7.438;2022-07-29T01:34:03;4.83;;;2.00;;
71534;SDS011;59357;51.514;7.438;2022-07-29T01:36:37;5.07;;;2.07;;
71534;SDS011;59357;51.514;7.438;2022-07-29T01:39:11;3.17;;;2.00;;
71534;SDS011;59357;51.514;7.438;2022-07-29T01:44:56;2.97;;;1.97;;
71534;SDS011;59357;51.514;7.438;2022-07-29T01:47:26;4.27;;;2.27;;
71534;SDS011;59357;51.514;7.438;2022-07-29T01:50:06;5.13;;;2.27;;
71534;SDS011;59357;51.514;7.438;2022-07-29T01:52:46;4.53;;;2.47;;
71534;SDS011;59357;51.514;7.438;2022-07-29T01:55:27;3.13;;;2.83;;
71534;SDS011;59357;51.514;7.438;2022-07-29T01:58:25;2.93;;;2.60;;
71534;SDS011;59357;51.514;7.438;2022-07-29T02:00:53;8.30;;;2.80;;
71534;SDS011;59357;51.514;7.438;2022-07-29T02:03:21;3.50;;;2.40;;
71534;SDS011;59357;51.514;7.438;2022-07-29T02:05:48;2.57;;;2.37;;
71534;SDS011;59357;51.514;7.438;2022-07-29T02:08:16;7.70;;;2.50;;
71534;SDS011;59357;51.514;7.438;2022-07-29T02:10:45;3.90;;;2.60;;
71534;SDS011;59357;51.514;7.438;2022-07-29T02:13:12;4.97;;;1.97;;
71534;SDS011;59357;51.514;7.438;2022-07-29T02:15:41;2.40;;;2.20;;
71534;SDS011;59357;51.514;7.438;2022-07-29T02:18:11;6.77;;;2.67;;
71534;SDS011;59357;51.514;7.438;2022-07-29T02:20:41;4.70;;;2.13;;
71534;SDS011;59357;51.514;7.438;2022-07-29T02:23:14;6.63;;;2.13;;
71534;SDS011;59357;51.514;7.438;2022-07-29T02:25:44;6.47;;;2.07;;
71534;SDS011;59357;51.514;7.438;2022-07-29T02:28:14;7.70;;;2.73;;
71534;SDS011;59357;51.514;7.438;2022-07-29T02:30:42;3.97;;;2.20;;
71534;SDS011;59357;51.514;7.438;2022-07-29T02:33:10;7.43;;;2.40;;
71534;SDS011;59357;51.514;7.438;2022-07-29T02:35:39;3.97;;;2.20;;
71534;SDS011;59357;51.514;7.438;2022-07-29T02:38:07;6.77;;;2.33;;
71534;SDS011;59357;51.514;7.438;2022-07-29T02:40:58;7.17;;;2.33;;
71534;SDS011;59357;51.514;7.438;2022-07-29T02:43:29;7.33;;;2.50;;
71534;SDS011;59357;51.514;7.438;2022-07-29T02:45:57;5.07;;;2.20;;
71534;SDS011;59357;51.514;7.438;2022-07-29T02:48:27;4.90;;;2.23;;
71534;SDS011;59357;51.514;7.438;2022-07-29T02:51:02;9.53;;;2.40;;
71534;SDS011;59357;51.514;7.438;2022-07-29T02:53:33;2.77;;;2.20;;
71534;SDS011;59357;51.514;7.438;2022-07-29T02:56:13;5.43;;;2.13;;
71534;SDS011;59357;51.514;7.438;2022-07-29T02:58:42;5.00;;;2.00;;
71534;SDS011;59357;51.514;7.438;2022-07-29T03:01:15;6.33;;;2.17;;
71534;SDS011;59357;51.514;7.438;2022-07-29T03:03:44;8.77;;;2.60;;
71534;SDS011;59357;51.514;7.438;2022-07-29T03:06:11;2.83;;;2.23;;
71534;SDS011;59357;51.514;7.438;2022-07-29T03:08:40;10.00;;;2.20;;
71534;SDS011;59357;51.514;7.438;2022-07-29T03:11:07;4.43;;;2.30;;
71534;SDS011;59357;51.514;7.438;2022-07-29T03:13:34;4.37;;;2.27;;
71534;SDS011;59357;51.514;7.438;2022-07-29T03:16:01;2.33;;;2.03;;
71534;SDS011;59357;51.514;7.438;2022-07-29T03:18:28;2.30;;;2.10;;
71534;SDS011;59357;51.514;7.438;2022-07-29T03:20:55;2.40;;;2.20;;
71534;SDS011;59357;51.514;7.438;2022-07-29T03:23:22;3.40;;;2.37;;
71534;SDS011;59357;51.514;7.438;2022-07-29T03:25:49;3.87;;;2.00;;
71534;SDS011;59357;51.514;7.438;2022-07-29T03:28:15;3.23;;;1.97;;
71534;SDS011;59357;51.514;7.438;2022-07-29T03:30:41;6.73;;;2.00;;
71534;SDS011;59357;51.514;7.438;2022-07-29T03:33:07;3.30;;;2.97;;
71534;SDS011;59357;51.514;7.438;2022-07-29T03:35:33;2.87;;;2.13;;
71534;SDS011;59357;51.514;7.438;2022-07-29T03:37:59;8.40;;;2.23;;
71534;SDS011;59357;51.514;7.438;2022-07-29T03:40:31;6.27;;;2.13;;
71534;SDS011;59357;51.514;7.438;2022-07-29T03:43:18;6.73;;;2.63;;
71534;SDS011;59357;51.514;7.438;2022-07-29T03:45:47;5.63;;;2.10;;
71534;SDS011;59357;51.514;7.438;2022-07-29T03:48:16;6.93;;;2.73;;
71534;SDS011;59357;51.514;7.438;2022-07-29T03:50:45;6.30;;;2.00;;
71534;SDS011;59357;51.514;7.438;2022-07-29T03:53:11;4.37;;;1.80;;
71534;SDS011;59357;51.514;7.438;2022-07-29T03:55:40;4.13;;;2.20;;
71534;SDS011;59357;51.514;7.438;2022-07-29T03:58:10;2.83;;;2.17;;
71534;SDS011;59357;51.514;7.438;2022-07-29T04:00:38;9.93;;;3.83;;
71534;SDS011;59357;51.514;7.438;2022-07-29T04:03:04;7.50;;;2.33;;
71534;SDS011;59357;51.514;7.438;2022-07-29T04:05:31;10.43;;;2.90;;
71534;SDS011;59357;51.514;7.438;2022-07-29T04:07:57;3.20;;;2.10;;
71534;SDS011;59357;51.514;7.438;2022-07-29T04:10:23;6.13;;;2.73;;
71534;SDS011;59357;51.514;7.438;2022-07-29T04:12:49;3.47;;;2.50;;
71534;SDS011;59357;51.514;7.438;2022-07-29T04:15:15;7.53;;;2.80;;
71534;SDS011;59357;51.514;7.438;2022-07-29T04:17:41;8.77;;;2.77;;
71534;SDS011;59357;51.514;7.438;2022-07-29T04:20:07;6.67;;;2.20;;
71534;SDS011;59357;51.514;7.438;2022-07-29T04:22:33;8.97;;;2.50;;
71534;SDS011;59357;51.514;7.438;2022-07-29T04:24:59;8.33;;;2.63;;
71534;SDS011;59357;51.514;7.438;2022-07-29T04:27:25;4.90;;;2.23;;
71534;SDS011;59357;51.514;7.438;2022-07-29T04:29:50;4.27;;;2.07;;
71534;SDS011;59357;51.514;7.438;2022-07-29T04:32:16;5.97;;;2.23;;
71534;SDS011;59357;51.514;7.438;2022-07-29T04:34:42;7.07;;;2.50;;
71534;SDS011;59357;51.514;7.438;2022-07-29T04:37:10;3.60;;;2.10;;
71534;SDS011;59357;51.514;7.438;2022-07-29T04:39:45;8.07;;;3.73;;
71534;SDS011;59357;51.514;7.438;2022-07-29T04:42:20;2.87;;;1.73;;
71534;SDS011;59357;51.514;7.438;2022-07-29T04:44:51;2.17;;;2.07;;
71534;SDS011;59357;51.514;7.438;2022-07-29T04:47:20;9.83;;;3.97;;
71534;SDS011;59357;51.514;7.438;2022-07-29T04:49:48;3.17;;;2.50;;
71534;SDS011;59357;51.514;7.438;2022-07-29T04:59:23;4.07;;;2.33;;
71534;SDS011;59357;51.514;7.438;2022-07-29T05:06:00;4.83;;;2.67;;
71534;SDS011;59357;51.514;7.438;2022-07-29T05:08:31;3.50;;;2.77;;
71534;SDS011;59357;51.514;7.438;2022-07-29T05:11:08;17.60;;;6.90;;
71534;SDS011;59357;51.514;7.438;2022-07-29T05:13:51;10.30;;;4.17;;
71534;SDS011;59357;51.514;7.438;2022-07-29T05:16:37;10.50;;;3.40;;
71534;SDS011;59357;51.514;7.438;2022-07-29T05:19:05;4.50;;;2.10;;
71534;SDS011;59357;51.514;7.438;2022-07-29T05:21:31;2.03;;;1.93;;
71534;SDS011;59357;51.514;7.438;2022-07-29T05:23:57;4.50;;;2.20;;
71534;SDS011;59357;51.514;7.438;2022-07-29T05:26:23;4.03;;;2.30;;
71534;SDS011;59357;51.514;7.438;2022-07-29T05:28:48;5.33;;;2.50;;
71534;SDS011;59357;51.514;7.438;2022-07-29T05:31:14;6.23;;;2.30;;
71534;SDS011;59357;51.514;7.438;2022-07-29T05:33:40;4.93;;;2.07;;
71534;SDS011;59357;51.514;7.438;2022-07-29T05:36:06;1.93;;;1.93;;
71534;SDS011;59357;51.514;7.438;2022-07-29T05:38:33;6.73;;;2.43;;
71534;SDS011;59357;51.514;7.438;2022-07-29T05:41:03;2.93;;;2.70;;
71534;SDS011;59357;51.514;7.438;2022-07-29T05:43:29;2.80;;;2.70;;
71534;SDS011;59357;51.514;7.438;2022-07-29T05:45:55;7.90;;;3.23;;
71534;SDS011;59357;51.514;7.438;2022-07-29T05:48:22;7.63;;;5.23;;
71534;SDS011;59357;51.514;7.438;2022-07-29T05:50:48;4.43;;;3.37;;
71534;SDS011;59357;51.514;7.438;2022-07-29T05:53:14;3.33;;;3.03;;
71534;SDS011;59357;51.514;7.438;2022-07-29T05:55:39;6.90;;;3.27;;
71534;SDS011;59357;51.514;7.438;2022-07-29T05:58:05;3.47;;;2.60;;
71534;SDS011;59357;51.514;7.438;2022-07-29T06:00:31;7.17;;;3.40;;
71534;SDS011;59357;51.514;7.438;2022-07-29T06:02:57;5.87;;;3.03;;
71534;SDS011;59357;51.514;7.438;2022-07-29T06:05:23;12.23;;;2.97;;
71534;SDS011;59357;51.514;7.438;2022-07-29T06:07:48;11.17;;;3.33;;
71534;SDS011;59357;51.514;7.438;2022-07-29T06:10:14;8.63;;;2.60;;
71534;SDS011;59357;51.514;7.438;2022-07-29T06:12:40;5.07;;;2.63;;
71534;SDS011;59357;51.514;7.438;2022-07-29T06:15:06;10.57;;;2.70;;
71534;SDS011;59357;51.514;7.438;2022-07-29T06:17:32;7.03;;;2.70;;
71534;SDS011;59357;51.514;7.438;2022-07-29T06:19:58;8.17;;;2.80;;
71534;SDS011;59357;51.514;7.438;2022-07-29T06:22:24;8.70;;;2.50;;
71534;SDS011;59357;51.514;7.438;2022-07-29T06:24:50;2.30;;;2.10;;
71534;SDS011;59357;51.514;7.438;2022-07-29T06:27:15;7.80;;;2.50;;
71534;SDS011;59357;51.514;7.438;2022-07-29T06:29:41;10.67;;;2.93;;
71534;SDS011;59357;51.514;7.438;2022-07-29T06:32:07;3.60;;;1.90;;
71534;SDS011;59357;51.514;7.438;2022-07-29T06:34:34;8.33;;;2.83;;
71534;SDS011;59357;51.514;7.438;2022-07-29T06:37:05;6.63;;;2.20;;
71534;SDS011;59357;51.514;7.438;2022-07-29T06:39:37;2.47;;;2.30;;
71534;SDS011;59357;51.514;7.438;2022-07-29T06:42:03;5.90;;;2.20;;
71534;SDS011;59357;51.514;7.438;2022-07-29T06:44:30;2.33;;;2.05;;
71534;SDS011;59357;51.514;7.438;2022-07-29T06:46:58;5.80;;;2.75;;
71534;SDS011;59357;51.514;7.438;2022-07-29T06:49:24;6.57;;;1.73;;
71534;SDS011;59357;51.514;7.438;2022-07-29T06:51:54;3.38;;;1.80;;
71534;SDS011;59357;51.514;7.438;2022-07-29T06:54:22;2.47;;;2.13;;
71534;SDS011;59357;51.514;7.438;2022-07-29T06:56:49;3.60;;;1.70;;
71534;SDS011;59357;51.514;7.438;2022-07-29T06:59:15;4.35;;;1.98;;
71534;SDS011;59357;51.514;7.438;2022-07-29T07:01:41;4.32;;;1.80;;
71534;SDS011;59357;51.514;7.438;2022-07-29T07:04:08;3.85;;;1.75;;
71534;SDS011;59357;51.514;7.438;2022-07-29T07:06:34;7.13;;;1.50;;
71534;SDS011;59357;51.514;7.438;2022-07-29T07:09:01;6.53;;;1.75;;
71534;SDS011;59357;51.514;7.438;2022-07-29T07:11:27;4.82;;;1.70;;
71534;SDS011;59357;51.514;7.438;2022-07-29T07:13:54;6.32;;;1.80;;
71534;SDS011;59357;51.514;7.438;2022-07-29T07:16:20;5.22;;;1.60;;
71534;SDS011;59357;51.514;7.438;2022-07-29T07:23:37;7.03;;;2.42;;
71534;SDS011;59357;51.514;7.438;2022-07-29T07:26:03;7.85;;;2.63;;
71534;SDS011;59357;51.514;7.438;2022-07-29T07:28:31;8.32;;;2.78;;
71534;SDS011;59357;51.514;7.438;2022-07-29T07:31:00;11.00;;;2.90;;
71534;SDS011;59357;51.514;7.438;2022-07-29T07:33:29;10.70;;;3.45;;
71534;SDS011;59357;51.514;7.438;2022-07-29T07:37:32;5.55;;;2.70;;
71534;SDS011;59357;51.514;7.438;2022-07-29T07:39:58;5.10;;;3.40;;
71534;SDS011;59357;51.514;7.438;2022-07-29T07:43:31;4.20;;;2.63;;
71534;SDS011;59357;51.514;7.438;2022-07-29T07:45:57;6.78;;;2.53;;
71534;SDS011;59357;51.514;7.438;2022-07-29T07:48:23;3.28;;;2.35;;
71534;SDS011;59357;51.514;7.438;2022-07-29T07:50:49;5.47;;;2.95;;
71534;SDS011;59357;51.514;7.438;2022-07-29T07:53:25;3.13;;;2.55;;
71534;SDS011;59357;51.514;7.438;2022-07-29T07:55:51;5.13;;;2.22;;
71534;SDS011;59357;51.514;7.438;2022-07-29T07:58:17;2.85;;;2.20;;
71534;SDS011;59357;51.514;7.438;2022-07-29T08:00:43;4.43;;;2.28;;
71534;SDS011;59357;51.514;7.438;2022-07-29T08:07:35;9.48;;;2.80;;
71534;SDS011;59357;51.514;7.438;2022-07-29T08:13:33;6.85;;;2.08;;
71534;SDS011;59357;51.514;7.438;2022-07-29T08:15:59;4.22;;;2.00;;
71534;SDS011;59357;51.514;7.438;2022-07-29T08:18:27;13.10;;;3.92;;
71534;SDS011;59357;51.514;7.438;2022-07-29T08:25:22;7.70;;;3.28;;
71534;SDS011;59357;51.514;7.438;2022-07-29T08:27:48;6.45;;;3.15;;
71534;SDS011;59357;51.514;7.438;2022-07-29T08:30:14;14.10;;;3.70;;
71534;SDS011;59357;51.514;7.438;2022-07-29T08:32:41;9.65;;;4.47;;
71534;SDS011;59357;51.514;7.438;2022-07-29T08:35:07;6.38;;;3.40;;
71534;SDS011;59357;51.514;7.438;2022-07-29T08:37:33;5.05;;;3.83;;
71534;SDS011;59357;51.514;7.438;2022-07-29T08:39:58;7.93;;;3.70;;
71534;SDS011;59357;51.514;7.438;2022-07-29T08:42:24;7.13;;;3.60;;
71534;SDS011;59357;51.514;7.438;2022-07-29T08:44:50;9.15;;;3.88;;
71534;SDS011;59357;51.514;7.438;2022-07-29T08:47:16;3.75;;;3.10;;
71534;SDS011;59357;51.514;7.438;2022-07-29T08:49:42;9.25;;;2.97;;
71534;SDS011;59357;51.514;7.438;2022-07-29T08:52:10;11.60;;;3.08;;
71534;SDS011;59357;51.514;7.438;2022-07-29T08:54:36;9.20;;;3.42;;
71534;SDS011;59357;51.514;7.438;2022-07-29T09:06:02;7.78;;;3.25;;
71534;SDS011;59357;51.514;7.438;2022-07-29T09:09:39;4.15;;;2.60;;
71534;SDS011;59357;51.514;7.438;2022-07-29T09:12:25;5.80;;;3.20;;
71534;SDS011;59357;51.514;7.438;2022-07-29T09:15:14;13.80;;;8.77;;
71534;SDS011;59357;51.514;7.438;2022-07-29T09:17:40;7.78;;;3.50;;
71534;SDS011;59357;51.514;7.438;2022-07-29T09:20:10;4.35;;;2.97;;
71534;SDS011;59357;51.514;7.438;2022-07-29T09:22:38;4.53;;;4.10;;
71534;SDS011;59357;51.514;7.438;2022-07-29T09:25:03;4.40;;;4.00;;
71534;SDS011;59357;51.514;7.438;2022-07-29T09:27:30;5.28;;;3.55;;
71534;SDS011;59357;51.514;7.438;2022-07-29T09:30:05;6.32;;;4.63;;
71534;SDS011;59357;51.514;7.438;2022-07-29T09:35:22;7.85;;;3.97;;
71534;SDS011;59357;51.514;7.438;2022-07-29T09:37:50;4.13;;;3.58;;
71534;SDS011;59357;51.514;7.438;2022-07-29T09:40:17;10.02;;;3.75;;
71534;SDS011;59357;51.514;7.438;2022-07-29T09:42:46;6.55;;;3.83;;
71534;SDS011;59357;51.514;7.438;2022-07-29T09:45:30;4.65;;;4.25;;
71534;SDS011;59357;51.514;7.438;2022-07-29T09:47:57;4.18;;;3.75;;
71534;SDS011;59357;51.514;7.438;2022-07-29T09:50:37;5.90;;;3.70;;
71534;SDS011;59357;51.514;7.438;2022-07-29T09:53:35;6.70;;;3.90;;
71534;SDS011;59357;51.514;7.438;2022-07-29T09:56:03;3.92;;;3.72;;
71534;SDS011;59357;51.514;7.438;2022-07-29T09:58:30;4.40;;;4.15;;
71534;SDS011;59357;51.514;7.438;2022-07-29T10:01:01;6.60;;;4.32;;
71534;SDS011;59357;51.514;7.438;2022-07-29T10:03:28;5.00;;;4.53;;
71534;SDS011;59357;51.514;7.438;2022-07-29T10:06:11;4.75;;;4.30;;
71534;SDS011;59357;51.514;7.438;2022-07-29T10:08:38;6.95;;;5.55;;
71534;SDS011;59357;51.514;7.438;2022-07-29T10:11:10;9.25;;;5.15;;
71534;SDS011;59357;51.514;7.438;2022-07-29T10:13:37;7.43;;;5.68;;
71534;SDS011;59357;51.514;7.438;2022-07-29T10:16:04;12.05;;;5.90;;
71534;SDS011;59357;51.514;7.438;2022-07-29T10:18:31;12.95;;;6.30;;
71534;SDS011;59357;51.514;7.438;2022-07-29T10:20:57;15.05;;;8.40;;
71534;SDS011;59357;51.514;7.438;2022-07-29T10:23:27;10.20;;;6.88;;
71534;SDS011;59357;51.514;7.438;2022-07-29T10:25:54;10.25;;;7.22;;
71534;SDS011;59357;51.514;7.438;2022-07-29T10:28:21;8.20;;;6.53;;
71534;SDS011;59357;51.514;7.438;2022-07-29T10:30:48;13.05;;;5.20;;
71534;SDS011;59357;51.514;7.438;2022-07-29T10:39:27;6.97;;;5.17;;
71534;SDS011;59357;51.514;7.438;2022-07-29T10:42:14;11.27;;;5.40;;
71534;SDS011;59357;51.514;7.438;2022-07-29T10:44:45;7.10;;;5.50;;
71534;SDS011;59357;51.514;7.438;2022-07-29T10:47:43;10.30;;;5.13;;
71534;SDS011;59357;51.514;7.438;2022-07-29T10:50:13;14.83;;;5.07;;
71534;SDS011;59357;51.514;7.438;2022-07-29T10:58:13;13.03;;;5.57;;
71534;SDS011;59357;51.514;7.438;2022-07-29T11:00:43;10.70;;;4.87;;
71534;SDS011;59357;51.514;7.438;2022-07-29T11:03:10;8.90;;;5.43;;
71534;SDS011;59357;51.514;7.438;2022-07-29T11:06:09;20.60;;;5.00;;
71534;SDS011;59357;51.514;7.438;2022-07-29T11:08:34;9.10;;;4.70;;
71534;SDS011;59357;51.514;7.438;2022-07-29T11:16:11;7.67;;;4.57;;
71534;SDS011;59357;51.514;7.438;2022-07-29T11:21:41;4.37;;;4.10;;
71534;SDS011;59357;51.514;7.438;2022-07-29T11:24:12;5.13;;;4.07;;
71534;SDS011;59357;51.514;7.438;2022-07-29T11:26:40;5.60;;;4.23;;
71534;SDS011;59357;51.514;7.438;2022-07-29T11:29:15;5.90;;;3.40;;
71534;SDS011;59357;51.514;7.438;2022-07-29T11:31:48;6.57;;;3.50;;
71534;SDS011;59357;51.514;7.438;2022-07-29T11:34:27;5.83;;;3.47;;
71534;SDS011;59357;51.514;7.438;2022-07-29T11:39:34;5.90;;;3.83;;
71534;SDS011;59357;51.514;7.438;2022-07-29T11:47:30;5.70;;;5.10;;
71534;SDS011;59357;51.514;7.438;2022-07-29T11:49:58;10.73;;;4.15;;
71534;SDS011;59357;51.514;7.438;2022-07-29T11:52:32;11.13;;;6.53;;
71534;SDS011;59357;51.514;7.438;2022-07-29T11:55:08;9.35;;;3.35;;
71534;SDS011;59357;51.514;7.438;2022-07-29T11:57:44;4.57;;;3.67;;
71534;SDS011;59357;51.514;7.438;2022-07-29T12:02:52;12.65;;;5.13;;
71534;SDS011;59357;51.514;7.438;2022-07-29T12:05:19;12.70;;;5.57;;
71534;SDS011;59357;51.514;7.438;2022-07-29T12:07:46;27.87;;;12.80;;
71534;SDS011;59357;51.514;7.438;2022-07-29T12:10:13;16.73;;;5.47;;
71534;SDS011;59357;51.514;7.438;2022-07-29T12:12:40;14.50;;;5.37;;
71534;SDS011;59357;51.514;7.438;2022-07-29T12:15:16;14.43;;;5.40;;
71534;SDS011;59357;51.514;7.438;2022-07-29T12:17:45;8.70;;;5.20;;
71534;SDS011;59357;51.514;7.438;2022-07-29T12:20:13;14.67;;;4.80;;
71534;SDS011;59357;51.514;7.438;2022-07-29T12:22:54;10.87;;;4.60;;
71534;SDS011;59357;51.514;7.438;2022-07-29T12:25:22;11.63;;;4.70;;
71534;SDS011;59357;51.514;7.438;2022-07-29T12:27:59;16.63;;;4.87;;
71534;SDS011;59357;51.514;7.438;2022-07-29T12:30:36;9.67;;;4.70;;
71534;SDS011;59357;51.514;7.438;2022-07-29T12:33:12;11.43;;;4.27;;
71534;SDS011;59357;51.514;7.438;2022-07-29T12:36:05;6.87;;;4.37;;
71534;SDS011;59357;51.514;7.438;2022-07-29T12:38:31;10.67;;;4.87;;
71534;SDS011;59357;51.514;7.438;2022-07-29T12:40:59;9.83;;;4.10;;
71534;SDS011;59357;51.514;7.438;2022-07-29T12:43:26;9.20;;;5.30;;
71534;SDS011;59357;51.514;7.438;2022-07-29T12:45:52;10.13;;;5.35;;
71534;SDS011;59357;51.514;7.438;2022-07-29T12:48:33;9.95;;;5.00;;
71534;SDS011;59357;51.514;7.438;2022-07-29T12:51:04;6.40;;;4.68;;
71534;SDS011;59357;51.514;7.438;2022-07-29T12:53:32;6.50;;;4.72;;
71534;SDS011;59357;51.514;7.438;2022-07-29T12:55:58;8.57;;;4.55;;
71534;SDS011;59357;51.514;7.438;2022-07-29T13:01:09;9.35;;;4.80;;
71534;SDS011;59357;51.514;7.438;2022-07-29T13:05:40;5.68;;;4.97;;
71534;SDS011;59357;51.514;7.438;2022-07-29T13:08:11;14.27;;;5.57;;
71534;SDS011;59357;51.514;7.438;2022-07-29T13:10:41;6.80;;;4.82;;
71534;SDS011;59357;51.514;7.438;2022-07-29T13:13:08;9.05;;;4.80;;
71534;SDS011;59357;51.514;7.438;2022-07-29T13:15:37;10.35;;;4.40;;
71534;SDS011;59357;51.514;7.438;2022-07-29T13:18:05;12.07;;;5.68;;
71534;SDS011;59357;51.514;7.438;2022-07-29T13:20:51;5.55;;;5.03;;
71534;SDS011;59357;51.514;7.438;2022-07-29T13:23:17;8.63;;;4.38;;
71534;SDS011;59357;51.514;7.438;2022-07-29T13:25:43;13.60;;;4.78;;
71534;SDS011;59357;51.514;7.438;2022-07-29T13:28:09;6.28;;;3.85;;
71534;SDS011;59357;51.514;7.438;2022-07-29T13:31:00;5.38;;;4.88;;
71534;SDS011;59357;51.514;7.438;2022-07-29T13:33:27;11.10;;;4.32;;
71534;SDS011;59357;51.514;7.438;2022-07-29T13:35:52;6.38;;;4.20;;
71534;SDS011;59357;51.514;7.438;2022-07-29T13:38:18;4.65;;;4.28;;
71534;SDS011;59357;51.514;7.438;2022-07-29T13:40:44;7.93;;;4.53;;
71534;SDS011;59357;51.514;7.438;2022-07-29T13:43:10;9.18;;;4.97;;
71534;SDS011;59357;51.514;7.438;2022-07-29T13:45:37;8.45;;;3.55;;
71534;SDS011;59357;51.514;7.438;2022-07-29T13:48:06;5.13;;;4.50;;
71534;SDS011;59357;51.514;7.438;2022-07-29T13:50:32;4.22;;;3.83;;
71534;SDS011;59357;51.514;7.438;2022-07-29T13:52:58;4.90;;;4.30;;
71534;SDS011;59357;51.514;7.438;2022-07-29T13:55:24;12.52;;;4.30;;
71534;SDS011;59357;51.514;7.438;2022-07-29T13:57:50;4.97;;;4.00;;
71534;SDS011;59357;51.514;7.438;2022-07-29T14:00:17;5.60;;;4.53;;
71534;SDS011;59357;51.514;7.438;2022-07-29T14:02:44;4.35;;;3.55;;
71534;SDS011;59357;51.514;7.438;2022-07-29T14:05:10;4.60;;;3.25;;
71534;SDS011;59357;51.514;7.438;2022-07-29T14:07:37;9.23;;;3.78;;
71534;SDS011;59357;51.514;7.438;2022-07-29T14:10:06;5.13;;;3.50;;
71534;SDS011;59357;51.514;7.438;2022-07-29T14:12:32;7.57;;;4.60;;
71534;SDS011;59357;51.514;7.438;2022-07-29T14:14:58;17.73;;;4.47;;
71534;SDS011;59357;51.514;7.438;2022-07-29T14:17:24;7.80;;;4.28;;
71534;SDS011;59357;51.514;7.438;2022-07-29T14:19:50;7.53;;;3.88;;
71534;SDS011;59357;51.514;7.438;2022-07-29T14:22:16;9.38;;;6.43;;
71534;SDS011;59357;51.514;7.438;2022-07-29T14:24:44;8.68;;;4.10;;
71534;SDS011;59357;51.514;7.438;2022-07-29T14:27:10;8.30;;;3.60;;
71534;SDS011;59357;51.514;7.438;2022-07-29T14:29:36;6.65;;;4.20;;
71534;SDS011;59357;51.514;7.438;2022-07-29T14:32:03;4.57;;;4.32;;
71534;SDS011;59357;51.514;7.438;2022-07-29T14:34:34;6.35;;;3.90;;
71534;SDS011;59357;51.514;7.438;2022-07-29T14:41:42;8.77;;;4.85;;
71534;SDS011;59357;51.514;7.438;2022-07-29T14:44:08;4.10;;;3.58;;
71534;SDS011;59357;51.514;7.438;2022-07-29T14:46:35;8.32;;;4.63;;
71534;SDS011;59357;51.514;7.438;2022-07-29T14:49:01;3.67;;;3.45;;
71534;SDS011;59357;51.514;7.438;2022-07-29T14:51:26;4.65;;;3.53;;
71534;SDS011;59357;51.514;7.438;2022-07-29T14:53:52;5.68;;;4.00;;
71534;SDS011;59357;51.514;7.438;2022-07-29T14:56:18;6.72;;;4.05;;
71534;SDS011;59357;51.514;7.438;2022-07-29T14:58:44;5.78;;;4.40;;
71534;SDS011;59357;51.514;7.438;2022-07-29T15:01:29;5.63;;;3.97;;
71534;SDS011;59357;51.514;7.438;2022-07-29T15:03:56;6.15;;;4.68;;
71534;SDS011;59357;51.514;7.438;2022-07-29T15:06:24;7.35;;;4.50;;
71534;SDS011;59357;51.514;7.438;2022-07-29T15:08:50;5.13;;;3.80;;
71534;SDS011;59357;51.514;7.438;2022-07-29T15:11:19;7.18;;;3.90;;
71534;SDS011;59357;51.514;7.438;2022-07-29T15:13:45;8.38;;;4.63;;
71534;SDS011;59357;51.514;7.438;2022-07-29T15:16:11;5.90;;;3.40;;
71534;SDS011;59357;51.514;7.438;2022-07-29T15:18:38;5.22;;;4.70;;
71534;SDS011;59357;51.514;7.438;2022-07-29T15:21:09;18.88;;;4.65;;
71534;SDS011;59357;51.514;7.438;2022-07-29T15:28:01;5.43;;;4.00;;
71534;SDS011;59357;51.514;7.438;2022-07-29T15:30:29;4.57;;;4.30;;
71534;SDS011;59357;51.514;7.438;2022-07-29T15:33:02;9.18;;;3.65;;
71534;SDS011;59357;51.514;7.438;2022-07-29T15:35:28;4.40;;;3.92;;
71534;SDS011;59357;51.514;7.438;2022-07-29T15:37:54;7.50;;;3.53;;
71534;SDS011;59357;51.514;7.438;2022-07-29T15:40:20;4.57;;;4.13;;
71534;SDS011;59357;51.514;7.438;2022-07-29T15:42:46;3.83;;;3.50;;
71534;SDS011;59357;51.514;7.438;2022-07-29T15:45:12;10.02;;;4.70;;
71534;SDS011;59357;51.514;7.438;2022-07-29T15:47:38;12.35;;;3.72;;
71534;SDS011;59357;51.514;7.438;2022-07-29T15:50:04;4.43;;;3.95;;
71534;SDS011;59357;51.514;7.438;2022-07-29T15:52:31;4.22;;;3.60;;
71534;SDS011;59357;51.514;7.438;2022-07-29T15:54:57;8.13;;;3.47;;
71534;SDS011;59357;51.514;7.438;2022-07-29T15:57:23;5.97;;;3.60;;
71534;SDS011;59357;51.514;7.438;2022-07-29T15:59:49;8.23;;;3.67;;
71534;SDS011;59357;51.514;7.438;2022-07-29T16:02:16;5.47;;;4.78;;
71534;SDS011;59357;51.514;7.438;2022-07-29T16:04:42;4.70;;;4.30;;
71534;SDS011;59357;51.514;7.438;2022-07-29T16:07:07;4.93;;;4.00;;
71534;SDS011;59357;51.514;7.438;2022-07-29T16:09:34;4.07;;;3.58;;
71534;SDS011;59357;51.514;7.438;2022-07-29T16:12:00;4.35;;;3.65;;
71534;SDS011;59357;51.514;7.438;2022-07-29T16:14:26;5.38;;;3.70;;
71534;SDS011;59357;51.514;7.438;2022-07-29T16:16:56;5.93;;;4.18;;
71534;SDS011;59357;51.514;7.438;2022-07-29T16:19:26;5.10;;;3.78;;
71534;SDS011;59357;51.514;7.438;2022-07-29T16:21:55;3.30;;;3.20;;
71534;SDS011;59357;51.514;7.438;2022-07-29T16:24:22;6.70;;;3.72;;
71534;SDS011;59357;51.514;7.438;2022-07-29T16:26:54;5.72;;;4.20;;
71534;SDS011;59357;51.514;7.438;2022-07-29T16:29:21;6.35;;;3.40;;
71534;SDS011;59357;51.514;7.438;2022-07-29T16:31:47;3.90;;;3.60;;
71534;SDS011;59357;51.514;7.438;2022-07-29T16:34:13;4.60;;;4.13;;
71534;SDS011;59357;51.514;7.438;2022-07-29T16:36:39;7.55;;;3.80;;
71534;SDS011;59357;51.514;7.438;2022-07-29T16:39:05;4.60;;;4.30;;
71534;SDS011;59357;51.514;7.438;2022-07-29T16:41:31;3.53;;;3.30;;